Luzerne, Pennsylvania
Current Conditions -  °F | °C
As of 4:54 AM on Wednesday 26 Nov 2014 (Local Time) from KAVP Reporting Station
Scattered Clouds Scattered Clouds  
Wind Chill: 33°   Ceiling: Unl
Heat Index: 38°   Visibility: 10mi
Dew Point: 28°   Wind: 7mph
Humidity: 68%   Direction: 40°NE
Pressure: 30.15"   Gusts: NA
Location:  41.29°N, 75.9°W
Report Text: KAVP 260954Z AUTO 04006KT 10SM SCT120 03/M02 A3015 RMK AO2 SLP212 T00331022
Loading
Personal Weather Stations






























Interactive Weather Map New forecast layout! Learn more

10-Day Weather Forecast

Advertisements
Track Severe Weather on mobile